Time;durP1;ratioP1;P1;durP2;ratioP2;P2;SDS_P1;SDS_P2;PMS_P1;PMS_P2;Temp;Humidity;BMP_temperature;BMP_pressure;BME280_temperature;BME280_humidity;BME280_pressure;Samples;Min_cycle;Max_cycle;Signal;HPM_P1;HPM_P2
2023/11/27 00:01:25;;;;;;;11.70;6.10;;;4.10;99.90;;;;;;5080867;28;20504;-68
2023/11/27 00:03:53;;;;;;;10.60;5.43;;;4.00;99.90;;;;;;5080021;28;20467;-70
2023/11/27 00:06:20;;;;;;;13.40;6.07;;;4.10;99.90;;;;;;5081094;28;20457;-71
2023/11/27 00:08:47;;;;;;;12.53;6.20;;;4.10;99.90;;;;;;5080430;28;20985;-70
2023/11/27 00:11:14;;;;;;;9.33;6.33;;;4.10;99.90;;;;;;5080316;28;20444;-70
2023/11/27 00:13:42;;;;;;;12.77;6.07;;;4.10;99.90;;;;;;5079686;28;20527;-70
2023/11/27 00:16:10;;;;;;;11.03;6.10;;;4.10;99.90;;;;;;5079876;28;20457;-70
2023/11/27 00:18:39;;;;;;;10.00;6.00;;;4.10;99.90;;;;;;5079250;28;20454;-69
2023/11/27 00:21:06;;;;;;;9.93;6.57;;;4.10;99.90;;;;;;5079382;28;20781;-70
2023/11/27 00:23:34;;;;;;;10.70;5.97;;;4.10;99.90;;;;;;5079164;28;20773;-71
2023/11/27 00:26:01;;;;;;;10.47;5.57;;;4.10;99.90;;;;;;5080095;28;20788;-70
2023/11/27 00:28:28;;;;;;;13.50;5.90;;;4.10;99.90;;;;;;5079464;28;20465;-71
2023/11/27 00:30:55;;;;;;;11.90;6.03;;;4.10;99.90;;;;;;5078911;28;20432;-69
2023/11/27 00:33:22;;;;;;;13.20;6.50;;;4.10;99.90;;;;;;5079621;28;20560;-71
2023/11/27 00:35:51;;;;;;;10.43;6.13;;;4.10;99.90;;;;;;5079217;28;20527;-70
2023/11/27 00:38:19;;;;;;;8.10;5.60;;;4.10;99.90;;;;;;5079656;28;20461;-70
2023/11/27 00:40:47;;;;;;;10.83;6.43;;;4.10;99.90;;;;;;5078973;28;20585;-71
2023/11/27 00:43:14;;;;;;;9.07;5.80;;;4.10;99.90;;;;;;5078981;28;20856;-70
2023/11/27 00:45:41;;;;;;;13.67;5.90;;;4.10;99.90;;;;;;5079470;28;20563;-70
2023/11/27 00:48:09;;;;;;;11.23;6.00;;;4.20;99.90;;;;;;5079202;28;20457;-70
2023/11/27 00:50:36;;;;;;;8.70;5.43;;;4.10;99.90;;;;;;5079123;28;20463;-70
2023/11/27 00:53:05;;;;;;;13.40;7.00;;;4.10;99.90;;;;;;5079036;28;20473;-70
2023/11/27 00:55:32;;;;;;;10.53;6.37;;;4.10;99.90;;;;;;5078837;28;20461;-69
2023/11/27 00:57:59;;;;;;;7.97;6.00;;;4.10;99.90;;;;;;5078824;28;20468;-70
2023/11/27 01:00:26;;;;;;;10.50;5.70;;;4.10;99.90;;;;;;5078522;28;20581;-70
2023/11/27 01:02:53;;;;;;;13.73;7.23;;;4.10;99.90;;;;;;5078847;28;20485;-70
2023/11/27 01:05:21;;;;;;;8.53;5.63;;;4.10;99.90;;;;;;5078377;28;20456;-70
2023/11/27 01:07:48;;;;;;;8.17;5.80;;;4.10;99.90;;;;;;5078336;28;20922;-70
2023/11/27 01:10:17;;;;;;;10.90;5.03;;;4.10;99.90;;;;;;5078993;28;20461;-71
2023/11/27 01:12:45;;;;;;;9.10;5.20;;;4.00;99.90;;;;;;5078157;28;20510;-71
2023/11/27 01:15:12;;;;;;;7.33;5.10;;;4.10;99.90;;;;;;5078074;28;20461;-69
2023/11/27 01:17:39;;;;;;;8.93;4.60;;;4.00;99.90;;;;;;5080736;28;20470;-69
2023/11/27 01:20:08;;;;;;;11.33;5.10;;;4.00;99.90;;;;;;5083520;28;20491;-69
2023/11/27 01:22:36;;;;;;;10.73;5.77;;;4.00;99.90;;;;;;5083876;28;20453;-69
2023/11/27 01:25:05;;;;;;;7.00;5.77;;;4.00;99.90;;;;;;5083932;28;20887;-68
2023/11/27 01:27:34;;;;;;;16.30;6.40;;;4.00;99.90;;;;;;5078649;28;20469;-66
2023/11/27 01:30:04;;;;;;;7.80;5.27;;;3.90;99.90;;;;;;5079675;28;20830;-67
2023/11/27 01:32:31;;;;;;;8.40;5.70;;;3.90;99.90;;;;;;5083249;28;20511;-67
2023/11/27 01:34:58;;;;;;;7.73;6.47;;;3.90;99.90;;;;;;5082839;28;20496;-67
2023/11/27 01:37:25;;;;;;;10.70;7.30;;;3.90;99.90;;;;;;5084552;28;20468;-67
2023/11/27 01:39:53;;;;;;;11.00;6.80;;;3.90;99.90;;;;;;5085647;28;20458;-67
2023/11/27 01:42:20;;;;;;;12.13;7.03;;;3.80;99.90;;;;;;5083889;28;20461;-67
2023/11/27 01:44:48;;;;;;;10.70;7.47;;;3.90;99.90;;;;;;5082799;28;20969;-67
2023/11/27 01:47:16;;;;;;;9.63;6.33;;;3.90;99.90;;;;;;5081486;28;20463;-67
2023/11/27 01:49:44;;;;;;;11.43;7.57;;;3.80;99.90;;;;;;5080355;28;20462;-66
2023/11/27 01:52:11;;;;;;;8.00;7.20;;;3.90;99.90;;;;;;5079441;28;20933;-66
2023/11/27 01:54:40;;;;;;;9.73;6.80;;;3.90;99.90;;;;;;5079876;28;20901;-67
2023/11/27 01:57:11;;;;;;;12.13;7.20;;;3.90;99.90;;;;;;5078711;28;20465;-66
2023/11/27 01:59:38;;;;;;;13.67;7.20;;;3.80;99.90;;;;;;5079257;28;20462;-66
2023/11/27 02:02:08;;;;;;;9.47;7.50;;;3.80;99.90;;;;;;5077524;28;20493;-66
2023/11/27 02:04:35;;;;;;;11.10;6.80;;;3.80;99.90;;;;;;5079329;28;20560;-66
2023/11/27 02:07:03;;;;;;;17.03;8.20;;;3.80;99.90;;;;;;5078796;28;20485;-66
2023/11/27 02:09:30;;;;;;;11.60;7.40;;;3.70;99.90;;;;;;5078620;28;20458;-66
2023/11/27 02:11:57;;;;;;;9.70;6.77;;;3.80;99.90;;;;;;5079082;28;20539;-66
2023/11/27 02:14:24;;;;;;;8.37;6.60;;;3.80;99.90;;;;;;5078524;28;20464;-66
2023/11/27 02:16:52;;;;;;;13.40;7.67;;;3.80;99.90;;;;;;5078178;28;20468;-66
2023/11/27 02:19:21;;;;;;;19.50;9.27;;;3.80;99.90;;;;;;5079006;28;20985;-66
2023/11/27 02:21:49;;;;;;;12.23;7.17;;;3.80;99.90;;;;;;5078202;28;20495;-66
2023/11/27 02:24:17;;;;;;;10.10;7.20;;;3.80;99.90;;;;;;5078340;28;20515;-67
2023/11/27 02:26:45;;;;;;;16.90;9.87;;;3.80;99.90;;;;;;5078715;28;20468;-66
2023/11/27 02:29:12;;;;;;;11.07;6.90;;;3.80;99.90;;;;;;5078602;28;20793;-66
2023/11/27 02:31:39;;;;;;;11.03;7.83;;;3.70;99.90;;;;;;5078910;28;20464;-66
2023/11/27 02:34:06;;;;;;;15.00;9.90;;;3.70;99.90;;;;;;5079665;28;20464;-66
2023/11/27 02:36:38;;;;;;;13.63;7.10;;;3.70;99.90;;;;;;5079291;28;20464;-66
2023/11/27 02:39:06;;;;;;;11.00;7.20;;;3.70;99.90;;;;;;5080416;28;20758;-66
2023/11/27 02:41:36;;;;;;;12.80;8.00;;;3.70;99.90;;;;;;5079577;28;20496;-66
2023/11/27 02:44:04;;;;;;;13.10;8.07;;;3.70;99.90;;;;;;5079088;28;20511;-67
2023/11/27 02:46:31;;;;;;;13.30;8.60;;;3.70;99.90;;;;;;5079705;28;20462;-67
2023/11/27 02:48:59;;;;;;;9.93;7.80;;;3.70;99.90;;;;;;5078783;28;20464;-66
2023/11/27 02:51:27;;;;;;;11.50;8.37;;;3.80;99.90;;;;;;5079123;28;20742;-67
2023/11/27 02:53:54;;;;;;;11.47;7.23;;;3.70;99.90;;;;;;5078982;28;20491;-66
2023/11/27 02:56:23;;;;;;;14.93;9.00;;;3.70;99.90;;;;;;5079094;28;20529;-66
2023/11/27 02:58:53;;;;;;;10.80;8.37;;;3.70;99.90;;;;;;5079788;28;20465;-66
2023/11/27 03:01:21;;;;;;;14.70;8.47;;;3.80;99.90;;;;;;5078728;28;20546;-67
2023/11/27 03:03:48;;;;;;;10.20;7.73;;;3.70;99.90;;;;;;5079435;28;20529;-67
2023/11/27 03:06:15;;;;;;;12.87;8.63;;;3.70;99.90;;;;;;5080129;28;20479;-67
2023/11/27 03:08:43;;;;;;;11.20;9.10;;;3.70;99.90;;;;;;5078824;28;20560;-67
2023/11/27 03:11:12;;;;;;;10.40;9.30;;;3.80;99.90;;;;;;5078399;28;20909;-65
2023/11/27 03:13:40;;;;;;;12.73;9.10;;;3.80;99.90;;;;;;5077863;28;20945;-65
2023/11/27 03:16:10;;;;;;;11.80;8.83;;;3.80;99.90;;;;;;5078054;28;20468;-64
2023/11/27 03:18:37;;;;;;;12.67;9.30;;;3.70;99.90;;;;;;5077306;28;20461;-63
2023/11/27 03:21:05;;;;;;;12.43;9.67;;;3.70;99.90;;;;;;5077968;28;20503;-64
2023/11/27 03:23:33;;;;;;;14.13;10.23;;;3.70;99.90;;;;;;5077301;28;20555;-64
2023/11/27 03:26:03;;;;;;;12.83;9.60;;;3.70;99.90;;;;;;5077879;28;20436;-64
2023/11/27 03:28:30;;;;;;;12.07;9.60;;;3.70;99.90;;;;;;5077987;28;20465;-65
2023/11/27 03:30:58;;;;;;;13.40;9.90;;;3.70;99.90;;;;;;5077403;28;20467;-64
2023/11/27 03:33:26;;;;;;;12.90;8.67;;;3.70;99.90;;;;;;5076993;28;20442;-64
2023/11/27 03:35:53;;;;;;;12.03;9.83;;;3.70;99.90;;;;;;5077841;28;20458;-65
2023/11/27 03:38:21;;;;;;;13.03;8.67;;;3.70;99.90;;;;;;5076774;28;20844;-66
2023/11/27 03:40:48;;;;;;;10.30;9.20;;;3.70;99.90;;;;;;5077232;28;20576;-66
2023/11/27 03:43:15;;;;;;;12.63;9.30;;;3.60;99.90;;;;;;5077612;28;20435;-66
2023/11/27 03:45:42;;;;;;;15.20;9.57;;;3.60;99.90;;;;;;5080772;28;20457;-64
2023/11/27 03:48:09;;;;;;;14.10;9.47;;;3.60;99.90;;;;;;5081639;28;20880;-65
2023/11/27 03:50:38;;;;;;;13.80;10.00;;;3.60;99.90;;;;;;5081129;28;20522;-64
2023/11/27 03:53:05;;;;;;;11.57;10.00;;;3.60;99.90;;;;;;5081608;28;20559;-65
2023/11/27 03:55:32;;;;;;;17.20;9.73;;;3.60;99.90;;;;;;5082014;28;20930;-66
2023/11/27 03:57:59;;;;;;;11.83;8.83;;;3.60;99.90;;;;;;5082223;28;20460;-66
2023/11/27 04:00:26;;;;;;;14.00;9.13;;;3.60;99.90;;;;;;5081896;28;20898;-67
2023/11/27 04:02:53;;;;;;;11.50;9.20;;;3.60;99.90;;;;;;5081978;28;20461;-66
2023/11/27 04:05:21;;;;;;;12.57;8.90;;;3.60;99.90;;;;;;5082307;28;20954;-65
2023/11/27 04:07:49;;;;;;;13.83;9.80;;;3.50;99.90;;;;;;5081778;28;20561;-66
2023/11/27 04:10:18;;;;;;;12.87;9.20;;;3.60;99.90;;;;;;5081737;28;20456;-66
2023/11/27 04:12:45;;;;;;;10.90;9.10;;;3.60;99.90;;;;;;5081533;28;20879;-66
2023/11/27 04:15:12;;;;;;;15.63;9.87;;;3.50;99.90;;;;;;5081841;28;20902;-65
2023/11/27 04:17:39;;;;;;;14.83;9.60;;;3.50;99.90;;;;;;5081380;28;20482;-65
2023/11/27 04:20:11;;;;;;;11.23;8.30;;;3.60;99.90;;;;;;5081374;28;20511;-65
2023/11/27 04:22:38;;;;;;;13.37;9.30;;;3.50;99.90;;;;;;5081069;28;20531;-66
2023/11/27 04:25:08;;;;;;;11.10;9.43;;;3.50;99.90;;;;;;5081689;28;20806;-67
2023/11/27 04:27:35;;;;;;;14.10;8.90;;;3.60;99.90;;;;;;5081308;28;20469;-66
2023/11/27 04:30:02;;;;;;;13.23;9.43;;;3.60;99.90;;;;;;5081887;28;20913;-67
2023/11/27 04:32:29;;;;;;;16.50;8.90;;;3.60;99.90;;;;;;5081615;28;20453;-67
2023/11/27 04:34:57;;;;;;;14.87;9.73;;;3.50;99.90;;;;;;5081355;28;20458;-66
2023/11/27 04:37:24;;;;;;;9.90;8.70;;;3.60;99.90;;;;;;5081325;28;20468;-66
2023/11/27 04:39:51;;;;;;;9.90;8.77;;;3.60;99.90;;;;;;5081143;28;20475;-66
2023/11/27 04:42:20;;;;;;;14.07;8.77;;;3.60;99.90;;;;;;5081214;28;20512;-66
2023/11/27 04:44:47;;;;;;;15.47;8.90;;;3.50;99.90;;;;;;5081201;28;20457;-66
2023/11/27 04:47:16;;;;;;;13.47;8.80;;;3.50;99.90;;;;;;5081228;28;20890;-66
2023/11/27 04:49:43;;;;;;;12.13;8.10;;;3.50;99.90;;;;;;5081071;28;20510;-66
2023/11/27 04:52:10;;;;;;;11.23;8.60;;;3.50;99.90;;;;;;5080891;28;20457;-66
2023/11/27 04:54:38;;;;;;;11.40;8.37;;;3.50;99.90;;;;;;5079052;28;20461;-66
2023/11/27 04:57:06;;;;;;;13.07;9.20;;;3.50;99.90;;;;;;5080661;28;20556;-66
2023/11/27 04:59:35;;;;;;;13.70;8.63;;;3.50;99.90;;;;;;5080417;28;20424;-67
2023/11/27 05:02:02;;;;;;;9.73;8.43;;;3.50;99.90;;;;;;5080493;28;20933;-66
2023/11/27 05:04:29;;;;;;;13.27;9.17;;;3.50;99.90;;;;;;5080260;28;20436;-66
2023/11/27 05:06:56;;;;;;;11.50;8.97;;;3.50;99.90;;;;;;5079583;28;20482;-66
2023/11/27 05:09:24;;;;;;;14.67;7.87;;;3.50;99.90;;;;;;5079452;28;20791;-65
2023/11/27 05:11:51;;;;;;;11.90;8.50;;;3.40;99.90;;;;;;5079835;28;20553;-66
2023/11/27 05:14:18;;;;;;;10.90;8.17;;;3.40;99.90;;;;;;5080483;28;20463;-66
2023/11/27 05:16:47;;;;;;;10.37;7.33;;;3.50;99.90;;;;;;5079223;28;20468;-65
2023/11/27 05:19:15;;;;;;;9.00;8.10;;;3.40;99.90;;;;;;5079614;28;20458;-66
2023/11/27 05:21:42;;;;;;;11.83;7.80;;;3.40;99.90;;;;;;5079075;28;20493;-65
2023/11/27 05:24:10;;;;;;;16.03;8.33;;;3.50;99.90;;;;;;5079611;28;20465;-66
2023/11/27 05:26:37;;;;;;;16.17;8.90;;;3.50;99.90;;;;;;5078956;28;20479;-66
2023/11/27 05:29:05;;;;;;;11.33;8.03;;;3.40;99.90;;;;;;5078949;28;20519;-66
2023/11/27 05:31:32;;;;;;;12.07;7.73;;;3.40;99.90;;;;;;5079255;28;20882;-65
2023/11/27 05:34:01;;;;;;;11.63;7.60;;;3.40;99.90;;;;;;5079139;28;20528;-66
2023/11/27 05:36:28;;;;;;;11.70;7.50;;;3.50;99.90;;;;;;5079114;28;20510;-66
2023/11/27 05:38:56;;;;;;;14.77;7.20;;;3.40;99.90;;;;;;5078291;28;20461;-66
2023/11/27 05:41:23;;;;;;;12.03;7.70;;;3.50;99.90;;;;;;5078669;28;20499;-64
2023/11/27 05:43:51;;;;;;;10.77;7.17;;;3.40;99.90;;;;;;5078475;28;20457;-64
2023/11/27 05:46:18;;;;;;;9.10;7.30;;;3.40;99.90;;;;;;5078601;28;20780;-65
2023/11/27 05:48:45;;;;;;;15.13;7.00;;;3.40;99.90;;;;;;5078348;28;20475;-65
2023/11/27 05:51:15;;;;;;;10.70;7.67;;;3.40;99.90;;;;;;5078476;28;20468;-64
2023/11/27 05:53:42;;;;;;;9.13;7.50;;;3.40;99.90;;;;;;5079193;28;20887;-65
2023/11/27 05:56:10;;;;;;;8.07;6.97;;;3.40;99.90;;;;;;5078596;28;20548;-64
2023/11/27 05:58:37;;;;;;;8.80;7.53;;;3.40;99.90;;;;;;5077927;28;20643;-65
2023/11/27 06:01:06;;;;;;;12.80;7.87;;;3.40;99.90;;;;;;5077364;28;20782;-65
2023/11/27 06:03:34;;;;;;;16.77;7.90;;;3.40;99.90;;;;;;5077745;28;20453;-65
2023/11/27 06:06:02;;;;;;;12.23;8.20;;;3.40;99.90;;;;;;5078729;28;20898;-65
2023/11/27 06:08:30;;;;;;;14.23;7.53;;;3.30;99.90;;;;;;5078269;28;20568;-64
2023/11/27 06:10:58;;;;;;;10.00;6.73;;;3.30;99.90;;;;;;5078935;28;20458;-66
2023/11/27 06:13:25;;;;;;;15.33;7.70;;;3.30;99.90;;;;;;5078975;28;20457;-66
2023/11/27 06:15:52;;;;;;;9.40;7.43;;;3.30;99.90;;;;;;5078887;28;20457;-65
2023/11/27 06:18:21;;;;;;;10.10;7.90;;;3.30;99.90;;;;;;5078595;28;20439;-65
2023/11/27 06:20:48;;;;;;;8.83;7.73;;;3.30;99.90;;;;;;5078657;28;20464;-65
2023/11/27 06:23:16;;;;;;;10.90;8.33;;;3.30;99.90;;;;;;5078907;28;21003;-65
2023/11/27 06:25:44;;;;;;;12.43;8.50;;;3.30;99.90;;;;;;5079190;28;20463;-64
2023/11/27 06:28:13;;;;;;;8.43;7.30;;;3.30;99.90;;;;;;5079945;28;20501;-64
2023/11/27 06:30:40;;;;;;;10.87;7.40;;;3.20;99.90;;;;;;5079329;28;20453;-67
2023/11/27 06:33:07;;;;;;;11.50;8.20;;;3.20;99.90;;;;;;5078654;28;20454;-64
2023/11/27 06:35:35;;;;;;;16.30;7.57;;;3.20;99.90;;;;;;5079483;28;20928;-67
2023/11/27 06:38:03;;;;;;;10.30;7.40;;;3.20;99.90;;;;;;5077342;28;20511;-67
2023/11/27 06:40:30;;;;;;;13.23;8.10;;;3.30;99.90;;;;;;5077166;28;20428;-66
2023/11/27 06:42:58;;;;;;;10.83;7.87;;;3.30;99.90;;;;;;5077120;28;21007;-65
2023/11/27 06:45:25;;;;;;;13.20;8.53;;;3.10;99.90;;;;;;5078386;28;20486;-65
2023/11/27 06:47:52;;;;;;;15.90;7.60;;;3.10;99.90;;;;;;5078680;28;20457;-64
2023/11/27 06:50:20;;;;;;;10.90;7.70;;;3.10;99.90;;;;;;5078607;28;20463;-65
2023/11/27 06:52:48;;;;;;;13.83;8.33;;;3.10;99.90;;;;;;5078509;28;20575;-65
2023/11/27 06:55:15;;;;;;;8.53;7.13;;;3.10;99.90;;;;;;5078138;28;20914;-67
2023/11/27 06:57:42;;;;;;;9.77;7.80;;;3.10;99.90;;;;;;5079276;28;20842;-67
2023/11/27 07:00:14;;;;;;;14.13;8.53;;;3.10;99.90;;;;;;5078476;28;20504;-66
2023/11/27 07:02:41;;;;;;;10.63;8.40;;;3.10;99.90;;;;;;5078775;28;20877;-66
2023/11/27 07:05:09;;;;;;;8.97;7.40;;;3.00;99.90;;;;;;5078491;28;20464;-66
2023/11/27 07:07:36;;;;;;;11.60;8.47;;;3.00;99.90;;;;;;5078768;28;20485;-67
2023/11/27 07:10:04;;;;;;;14.20;8.77;;;3.00;99.90;;;;;;5078992;28;20434;-66
2023/11/27 07:12:32;;;;;;;11.10;8.27;;;2.90;99.90;;;;;;5079132;28;20493;-67
2023/11/27 07:15:00;;;;;;;13.70;8.13;;;2.90;99.90;;;;;;5078313;28;20552;-67
2023/11/27 07:17:29;;;;;;;12.90;7.87;;;2.90;99.90;;;;;;5079705;28;20436;-69
2023/11/27 07:19:56;;;;;;;11.90;9.03;;;2.90;99.90;;;;;;5083566;28;20460;-70
2023/11/27 07:22:23;;;;;;;9.90;8.07;;;2.80;99.90;;;;;;5084837;28;20474;-69
2023/11/27 07:24:51;;;;;;;9.83;7.33;;;2.80;99.90;;;;;;5085111;28;20520;-69
2023/11/27 07:27:18;;;;;;;9.93;7.90;;;2.70;99.90;;;;;;5086666;28;20444;-69
2023/11/27 07:29:46;;;;;;;10.00;7.80;;;2.70;99.90;;;;;;5087604;28;20457;-67
2023/11/27 07:32:15;;;;;;;9.93;7.93;;;2.70;99.90;;;;;;5086983;28;20432;-67
2023/11/27 07:34:44;;;;;;;10.50;7.80;;;2.70;99.90;;;;;;5086061;28;20440;-64
2023/11/27 07:37:11;;;;;;;9.33;7.53;;;2.60;99.90;;;;;;5085441;28;20491;-67
2023/11/27 07:39:39;;;;;;;11.47;8.10;;;2.60;99.90;;;;;;5084413;28;20457;-66
2023/11/27 07:42:08;;;;;;;8.17;7.37;;;2.60;99.90;;;;;;5083508;28;20546;-66
2023/11/27 07:44:36;;;;;;;9.43;7.70;;;2.60;99.90;;;;;;5082714;28;20434;-67
2023/11/27 07:47:03;;;;;;;17.00;12.50;;;2.60;99.90;;;;;;5082853;28;20497;-66
2023/11/27 07:49:30;;;;;;;26.93;17.97;;;2.60;99.90;;;;;;5083166;28;20493;-68
2023/11/27 07:51:59;;;;;;;23.23;15.40;;;2.60;99.90;;;;;;5081644;28;20464;-68
2023/11/27 07:54:27;;;;;;;26.60;18.90;;;2.60;99.90;;;;;;5080265;28;20552;-68
2023/11/27 07:56:55;;;;;;;23.57;17.07;;;2.50;99.90;;;;;;5079246;28;20548;-68
2023/11/27 07:59:24;;;;;;;17.33;11.73;;;2.50;99.90;;;;;;5081233;28;20823;-67
2023/11/27 08:01:51;;;;;;;16.80;11.50;;;2.50;99.90;;;;;;5080280;28;20469;-68
2023/11/27 08:04:18;;;;;;;11.37;9.97;;;2.50;99.90;;;;;;5080851;28;20465;-67
2023/11/27 08:06:46;;;;;;;8.40;7.10;;;2.50;99.90;;;;;;5079593;28;20901;-66
2023/11/27 08:09:15;;;;;;;7.10;6.40;;;2.60;99.90;;;;;;5079901;28;20568;-67
2023/11/27 08:11:43;;;;;;;6.90;5.90;;;2.60;99.90;;;;;;5081856;28;20523;-66
2023/11/27 08:14:13;;;;;;;7.60;6.20;;;2.60;99.90;;;;;;5082648;28;20497;-70
2023/11/27 08:16:40;;;;;;;6.60;5.90;;;2.60;99.90;;;;;;5080895;28;20443;-66
2023/11/27 08:19:09;;;;;;;9.30;6.27;;;2.50;99.90;;;;;;5081618;28;20493;-66
2023/11/27 08:21:36;;;;;;;7.50;6.67;;;2.50;99.90;;;;;;5082258;28;20462;-66
2023/11/27 08:24:06;;;;;;;10.93;6.43;;;2.50;99.90;;;;;;5081582;28;20946;-67
2023/11/27 08:26:39;;;;;;;7.40;6.70;;;2.50;99.90;;;;;;5082962;28;20465;-66
2023/11/27 08:29:08;;;;;;;9.20;6.00;;;2.50;99.90;;;;;;5082321;28;20457;-68
2023/11/27 08:31:35;;;;;;;6.10;5.37;;;2.50;99.90;;;;;;5081654;28;20471;-67
2023/11/27 08:34:04;;;;;;;5.80;5.20;;;2.50;99.90;;;;;;5080964;28;20939;-66
2023/11/27 08:36:32;;;;;;;6.53;5.93;;;2.40;99.90;;;;;;5081641;28;20491;-66
2023/11/27 08:38:59;;;;;;;6.40;4.93;;;2.40;99.90;;;;;;5080961;28;20488;-67
2023/11/27 08:41:27;;;;;;;6.37;5.57;;;2.40;99.90;;;;;;5081728;28;20477;-66
2023/11/27 08:43:55;;;;;;;7.70;5.17;;;2.40;99.90;;;;;;5081732;28;20513;-67
2023/11/27 08:46:24;;;;;;;5.60;5.10;;;2.30;99.90;;;;;;5081720;28;20750;-67
2023/11/27 08:48:51;;;;;;;5.17;4.67;;;2.30;99.90;;;;;;5082119;28;20465;-67
2023/11/27 08:51:21;;;;;;;6.20;4.63;;;2.30;99.90;;;;;;5082577;28;20461;-67
2023/11/27 08:53:50;;;;;;;5.23;4.07;;;2.40;99.90;;;;;;5081784;28;20488;-67
2023/11/27 08:56:18;;;;;;;6.73;4.10;;;2.40;99.90;;;;;;5082494;28;20436;-67
2023/11/27 08:58:47;;;;;;;5.03;4.10;;;2.40;99.90;;;;;;5081589;28;20524;-67
2023/11/27 09:01:16;;;;;;;4.40;4.00;;;2.40;99.90;;;;;;5081594;28;20447;-67
2023/11/27 09:03:44;;;;;;;4.10;3.60;;;2.50;99.90;;;;;;5082939;28;20497;-67
2023/11/27 09:06:12;;;;;;;5.23;4.40;;;2.40;99.90;;;;;;5081854;28;20447;-67
2023/11/27 09:08:40;;;;;;;5.60;3.90;;;2.40;99.90;;;;;;5082109;28;20489;-67
2023/11/27 09:11:11;;;;;;;27.40;11.47;;;2.30;99.90;;;;;;5082989;28;20458;-66
2023/11/27 09:13:38;;;;;;;11.87;7.93;;;2.20;99.90;;;;;;5081898;28;20758;-66
2023/11/27 09:16:06;;;;;;;8.77;7.60;;;2.20;99.90;;;;;;5081552;28;20463;-66
2023/11/27 09:18:35;;;;;;;10.07;8.30;;;2.20;99.90;;;;;;5078715;28;20453;-66
2023/11/27 09:21:03;;;;;;;8.50;6.80;;;2.10;99.90;;;;;;5078473;28;20472;-62
2023/11/27 09:23:32;;;;;;;8.10;6.07;;;2.10;99.90;;;;;;5078165;28;20571;-62
2023/11/27 09:26:00;;;;;;;6.63;4.83;;;2.00;99.90;;;;;;5078752;28;20949;-62
2023/11/27 09:28:28;;;;;;;5.23;4.13;;;2.00;99.90;;;;;;5079461;28;20859;-64
2023/11/27 09:30:55;;;;;;;4.13;3.17;;;1.90;99.90;;;;;;5079193;28;20488;-64
2023/11/27 09:33:23;;;;;;;5.33;4.80;;;1.90;99.90;;;;;;5079582;28;20460;-62
2023/11/27 09:35:52;;;;;;;4.10;3.70;;;1.90;99.90;;;;;;5079584;28;20866;-63
2023/11/27 09:38:19;;;;;;;3.50;2.90;;;1.80;99.90;;;;;;5079203;28;20514;-63
2023/11/27 09:40:46;;;;;;;3.80;3.10;;;1.80;99.90;;;;;;5078704;28;20821;-68
2023/11/27 09:43:14;;;;;;;4.60;3.17;;;1.90;99.90;;;;;;5079532;28;20866;-63
2023/11/27 09:45:41;;;;;;;3.60;3.03;;;1.80;99.90;;;;;;5078885;28;20439;-64
2023/11/27 09:48:10;;;;;;;3.43;2.40;;;1.80;99.90;;;;;;5079036;28;20440;-64
2023/11/27 09:50:37;;;;;;;3.23;2.30;;;1.80;99.90;;;;;;5078290;28;20493;-66
2023/11/27 09:53:08;;;;;;;3.33;2.40;;;1.80;99.90;;;;;;5077854;28;20450;-64
2023/11/27 09:55:37;;;;;;;4.10;2.97;;;1.70;99.90;;;;;;5078316;28;20457;-62
2023/11/27 09:58:06;;;;;;;3.00;2.20;;;1.80;99.90;;;;;;5077842;28;20568;-62
2023/11/27 10:00:34;;;;;;;3.40;2.50;;;1.80;99.90;;;;;;5077466;28;20898;-65
2023/11/27 10:03:02;;;;;;;3.33;2.10;;;1.70;99.90;;;;;;5077930;28;20485;-66
2023/11/27 10:05:31;;;;;;;4.10;2.70;;;1.70;99.90;;;;;;5074874;28;20478;-63
2023/11/27 10:07:59;;;;;;;3.40;2.40;;;1.80;99.90;;;;;;5077983;28;20482;-64
2023/11/27 10:10:28;;;;;;;4.13;2.30;;;1.80;99.90;;;;;;5076340;28;20477;-63
2023/11/27 10:12:59;;;;;;;4.40;2.80;;;1.80;99.90;;;;;;5075113;28;20512;-63
2023/11/27 10:15:27;;;;;;;3.10;2.30;;;1.80;99.90;;;;;;5078194;28;20457;-63
2023/11/27 10:17:56;;;;;;;2.70;2.23;;;1.80;99.90;;;;;;5076303;28;20872;-64
2023/11/27 10:20:25;;;;;;;3.80;2.20;;;1.80;99.90;;;;;;5078391;28;20516;-65
2023/11/27 10:22:53;;;;;;;3.00;2.50;;;1.80;99.90;;;;;;5077588;28;20488;-63
2023/11/27 10:25:23;;;;;;;3.73;2.17;;;1.80;99.90;;;;;;5077233;28;20464;-63
2023/11/27 10:27:58;;;;;;;2.63;2.00;;;1.80;99.90;;;;;;5078109;28;20527;-62
2023/11/27 10:30:26;;;;;;;4.03;2.40;;;1.80;99.90;;;;;;5076250;28;20475;-63
2023/11/27 10:32:53;;;;;;;2.80;2.10;;;1.80;99.90;;;;;;5077213;28;20462;-63
2023/11/27 10:35:23;;;;;;;2.90;2.30;;;1.80;99.90;;;;;;5077653;28;20496;-65
2023/11/27 10:37:50;;;;;;;3.57;2.57;;;1.80;99.90;;;;;;5078006;28;20461;-63
2023/11/27 10:40:20;;;;;;;3.33;2.53;;;1.80;99.90;;;;;;5077612;28;20760;-66
2023/11/27 10:42:49;;;;;;;2.93;2.30;;;1.80;99.90;;;;;;5078035;28;20461;-63
2023/11/27 10:45:22;;;;;;;4.63;2.50;;;1.70;99.90;;;;;;5077605;28;20465;-63
2023/11/27 10:47:51;;;;;;;2.77;2.30;;;1.70;99.90;;;;;;5077445;28;20446;-63
2023/11/27 10:50:22;;;;;;;3.60;2.20;;;1.70;99.90;;;;;;5077684;28;20516;-67
2023/11/27 10:52:50;;;;;;;2.93;2.43;;;1.70;99.90;;;;;;5076275;28;20543;-67
2023/11/27 10:55:19;;;;;;;2.93;2.00;;;1.70;99.90;;;;;;5077152;28;20872;-67
2023/11/27 10:57:47;;;;;;;3.20;2.30;;;1.70;99.90;;;;;;5077037;28;20464;-65
2023/11/27 11:00:28;;;;;;;3.20;2.60;;;1.70;99.90;;;;;;5069775;28;20480;-66
2023/11/27 11:03:02;;;;;;;3.20;2.37;;;1.80;99.90;;;;;;5075161;28;20457;-65
2023/11/27 11:05:37;;;;;;;3.00;2.03;;;1.80;99.90;;;;;;5075682;28;20712;-66
2023/11/27 11:08:07;;;;;;;3.00;2.20;;;1.80;99.90;;;;;;5076680;28;20492;-66
2023/11/27 11:10:36;;;;;;;3.37;2.40;;;1.80;99.90;;;;;;5075672;28;20461;-65
2023/11/27 11:13:07;;;;;;;3.63;2.50;;;1.90;99.90;;;;;;5077021;28;20458;-66
2023/11/27 11:15:42;;;;;;;3.07;2.30;;;1.90;99.90;;;;;;5076945;28;20550;-67
2023/11/27 11:18:15;;;;;;;3.90;2.30;;;1.80;99.90;;;;;;5077083;28;20461;-67
2023/11/27 11:21:09;;;;;;;2.80;2.27;;;1.90;99.90;;;;;;5077105;28;20489;-66
2023/11/27 11:23:43;;;;;;;26.67;4.30;;;1.90;99.90;;;;;;5076418;28;20484;-66
2023/11/27 11:26:32;;;;;;;4.13;2.20;;;1.90;99.90;;;;;;5076178;28;20491;-66
2023/11/27 11:29:11;;;;;;;3.43;2.43;;;1.90;99.90;;;;;;5075145;28;20512;-63
2023/11/27 11:31:45;;;;;;;2.90;2.27;;;1.90;99.90;;;;;;5075245;28;20832;-65
2023/11/27 11:34:24;;;;;;;3.30;2.20;;;1.90;99.90;;;;;;5075401;28;20446;-66
2023/11/27 11:36:57;;;;;;;4.27;2.60;;;1.90;99.90;;;;;;5075077;28;20552;-66
2023/11/27 11:39:25;;;;;;;3.23;2.63;;;1.90;99.90;;;;;;5075666;28;20885;-67
2023/11/27 11:42:03;;;;;;;2.90;2.47;;;1.90;99.90;;;;;;5076692;28;20548;-66
2023/11/27 11:44:34;;;;;;;3.03;2.67;;;1.90;99.90;;;;;;5076788;28;20969;-67
2023/11/27 11:47:08;;;;;;;3.07;2.53;;;2.00;99.90;;;;;;5076613;28;20461;-67
2023/11/27 11:49:35;;;;;;;4.87;2.93;;;2.00;99.90;;;;;;5076900;28;20886;-67
2023/11/27 11:52:07;;;;;;;3.90;2.50;;;1.90;99.90;;;;;;5076278;28;20567;-67
2023/11/27 11:54:39;;;;;;;4.20;2.80;;;1.90;99.90;;;;;;5074516;28;20555;-67
2023/11/27 11:57:16;;;;;;;3.57;2.90;;;1.90;99.90;;;;;;5075105;28;20506;-67
2023/11/27 11:59:47;;;;;;;6.40;3.57;;;1.90;99.90;;;;;;5075894;28;20468;-67
2023/11/27 12:02:22;;;;;;;4.93;3.33;;;2.00;99.90;;;;;;5076180;28;20461;-67
2023/11/27 12:04:54;;;;;;;4.03;3.10;;;1.90;99.90;;;;;;5078202;28;20512;-66
2023/11/27 12:07:23;;;;;;;4.73;2.90;;;1.90;99.90;;;;;;5079277;28;20523;-67
2023/11/27 12:09:51;;;;;;;3.23;2.60;;;1.90;99.90;;;;;;5079575;28;20531;-67
2023/11/27 12:12:20;;;;;;;4.10;3.70;;;1.90;99.90;;;;;;5080011;28;20461;-67
2023/11/27 12:14:48;;;;;;;4.97;3.13;;;1.80;99.90;;;;;;5079654;28;20524;-67
2023/11/27 12:17:16;;;;;;;3.60;2.70;;;1.80;99.90;;;;;;5080140;28;20811;-67
2023/11/27 12:19:45;;;;;;;3.20;2.70;;;1.90;99.90;;;;;;5079750;28;20544;-68
2023/11/27 12:22:13;;;;;;;2.90;2.50;;;1.90;99.90;;;;;;5080060;28;20879;-67
2023/11/27 12:24:47;;;;;;;3.63;2.73;;;1.90;99.90;;;;;;5079428;28;20494;-68
2023/11/27 12:27:15;;;;;;;4.53;2.80;;;2.00;99.90;;;;;;5079851;28;20465;-68
2023/11/27 12:29:47;;;;;;;3.40;2.97;;;2.00;99.90;;;;;;5079712;28;20493;-68
2023/11/27 12:32:16;;;;;;;4.40;3.20;;;2.00;99.90;;;;;;5079861;28;20515;-68
2023/11/27 12:34:43;;;;;;;4.67;3.93;;;2.10;99.90;;;;;;5079069;28;20458;-69
2023/11/27 12:37:11;;;;;;;3.20;2.40;;;2.10;99.90;;;;;;5079181;28;20497;-69
2023/11/27 12:39:40;;;;;;;3.80;3.00;;;2.10;99.90;;;;;;5079540;28;20833;-66
2023/11/27 12:42:13;;;;;;;4.43;4.00;;;2.10;99.90;;;;;;5079517;28;20507;-70
2023/11/27 12:44:46;;;;;;;4.30;3.40;;;2.10;99.90;;;;;;5078800;28;20495;-68
2023/11/27 12:47:18;;;;;;;3.43;2.80;;;2.10;99.90;;;;;;5079167;28;20948;-70
2023/11/27 12:49:51;;;;;;;3.50;3.13;;;2.20;99.90;;;;;;5079643;28;20750;-69
2023/11/27 12:52:19;;;;;;;4.30;3.50;;;2.20;99.90;;;;;;5077657;28;20750;-70
2023/11/27 12:54:54;;;;;;;5.90;5.30;;;2.20;99.90;;;;;;5077184;28;20461;-70
2023/11/27 12:57:22;;;;;;;8.53;6.20;;;2.20;99.90;;;;;;5077657;28;20456;-68